• Join FlightAware (Why Join?)
  • Login
  • US Flag 
06:31PM EST


 

Airport Tracker/Info


-or-


 

Live Flight TrackerFlight Track Log ✈ SWA1712 ✈ 04-May-2013 ✈ KSJC - KPHX

Flight Track Log - Related Links

Times and Time Zones

All times are in EDT time to prevent confusion due to time zone crossing. See the SWA1712 flight status page for this flight to view local times or setup timezone preferences in your user account.

Time Position Orientation Groundspeed Altitude Reporting Facility
EDT Latitude Longitude Course Direction KTS MPH feet Rate Location/Type
10:16PM 37.3500 -121.9167 130° Southeast 141 162 1,100  Level Northern Cal TRACON
10:17PM 37.3167 -121.8667 130° Southeast 228 262 3,200 2,100 Climbing Northern Cal TRACON
10:18PM 37.2825 -121.8219 134° Southeast 234 269 4,900 2,520 Climbing Oakland Center
10:19PM 37.2422 -121.7492 125° Southeast 256 295 7,400 2,820 Climbing Oakland Center
10:20PM 37.1942 -121.6625 125° Southeast 289 333 10,600 2,880 Climbing Oakland Center
10:21PM 37.1392 -121.5753 128° Southeast 311 358 13,300 2,640 Climbing Oakland Center
10:22PM 37.0639 -121.4897 138° Southeast 346 398 16,000 2,820 Climbing Oakland Center
10:23PM 36.9858 -121.4025 138° Southeast 369 425 19,000 2,460 Climbing Oakland Center
10:24PM 36.9017 -121.3139 140° Southeast 389 448 21,000 1,980 Climbing Oakland Center
10:25PM 36.8175 -121.2214 139° Southeast 411 473 23,100 1,980 Climbing Oakland Center
10:26PM 36.7267 -121.1242 139° Southeast 425 489 25,100 1,980 Climbing Oakland Center
10:27PM 36.6328 -121.0225 139° Southeast 440 506 27,200 2,220 Climbing Oakland Center
10:28PM 36.5328 -120.8775 131° Southeast 454 522 29,700 2,460 Climbing Oakland Center
10:29PM 36.4722 -120.7339 118° Southeast 465 535 32,200 1,740 Climbing Oakland Center
10:30PM 36.4081 -120.5922 119° Southeast 467 537 33,300 1,620 Climbing Oakland Center
10:31PM 36.3433 -120.4428 118° Southeast 486 559 35,500 1,620 Climbing Oakland Center
10:32PM 36.2797 -120.2992 119° Southeast 477 549 36,600 660 Climbing Oakland Center
10:33PM 36.2144 -120.1542 119° Southeast 481 554 36,900 180 Climbing Oakland Center
10:34PM 36.1508 -120.0133 119° Southeast 469 540 37,000  Climbing Oakland Center
10:35PM 36.0883 -119.8747 119° Southeast 461 531 37,000  Level Oakland Center
10:36PM 36.0256 -119.7383 120° Southeast 457 526 37,000  Level Oakland Center
10:37PM 35.9647 -119.6042 119° Southeast 447 514 37,000  Level Oakland Center
10:38PM 35.9033 -119.4658 119° Southeast 457 526 37,000  Level Oakland Center
10:39PM 35.8400 -119.3289 120° Southeast 457 526 37,000  Level Oakland Center
10:40PM 35.7761 -119.1900 120° Southeast 461 531 37,000  Level Oakland Center
10:41PM 35.7111 -119.0511 120° Southeast 466 536 37,000  Level Oakland Center
10:42PM 35.6467 -118.9108 119° Southeast 468 539 37,000  Level Oakland Center
10:43PM 35.5806 -118.7714 120° Southeast 471 542 37,000  Level Oakland Center
10:44PM 35.5153 -118.6292 119° Southeast 476 548 37,000  Level Oakland Center
10:45PM 35.4489 -118.4878 120° Southeast 477 549 37,000  Level Oakland Center
10:46PM 35.3819 -118.3472 120° Southeast 478 550 37,000  Level Oakland Center
10:47PM 35.3158 -118.2078 120° Southeast 476 548 37,000  Level Oakland Center
10:48PM 35.2367 -118.0406 120° Southeast 473 544 37,000  Level Los Angeles Center
10:49PM 35.1711 -117.9042 120° Southeast 470 541 37,000  Level Los Angeles Center
10:50PM 35.1050 -117.7675 121° Southeast 469 540 37,000  Level Los Angeles Center
10:51PM 35.0392 -117.6283 120° Southeast 468 539 37,000  Level Los Angeles Center
10:52PM 34.9628 -117.4742 121° Southeast 483 556 37,000  Level Los Angeles Center
10:53PM 34.8969 -117.3381 120° Southeast 474 545 37,000  Level Los Angeles Center
10:54PM 34.8289 -117.2008 121° Southeast 475 547 37,000  Level Los Angeles Center
10:55PM 34.7642 -117.0644 120° Southeast 469 540 37,000  Level Los Angeles Center
10:56PM 34.6964 -116.9278 121° Southeast 472 543 37,000  Level Los Angeles Center
10:57PM 34.6303 -116.7914 120° Southeast 469 540 37,000  Level Los Angeles Center
10:58PM 34.5619 -116.6561 121° Southeast 471 542 37,000  Level Los Angeles Center
10:59PM 34.4814 -116.4931 121° Southeast 471 542 37,000  Level Los Angeles Center
11:00PM 34.4133 -116.3572 121° Southeast 471 542 37,000  Level Los Angeles Center
11:01PM 34.3467 -116.2208 121° Southeast 473 544 37,000  Level Los Angeles Center
11:03PM 34.2778 -116.0861 122° Southeast 472 543 37,000  Level Los Angeles Center
11:04PM 34.1989 -115.9214 120° Southeast 472 543 37,000  Level Los Angeles Center
11:05PM 34.1478 -115.7833 114° Southeast 466 536 37,000  Level Los Angeles Center
11:06PM 34.0897 -115.6375 116° Southeast 474 545 37,000  Level Los Angeles Center
11:07PM 34.0322 -115.4939 116° Southeast 474 545 37,000  Level Los Angeles Center
11:08PM 33.9633 -115.3228 116° Southeast 473 544 37,000  Level Los Angeles Center
11:09PM 33.9064 -115.1792 116° Southeast 474 545 37,000  Level Los Angeles Center
11:10PM 33.8378 -115.0058 115° Southeast 480 552 37,000  Level Los Angeles Center
11:11PM 33.7786 -114.8633 117° Southeast 479 551 37,000  Level Los Angeles Center
11:12PM 33.7189 -114.7203 117° Southeast 478 550 37,000 -1,020 Level Los Angeles Center
11:13PM 33.6625 -114.5756 115° Southeast 480 552 35,000 -2,460 Descending Los Angeles Center
11:14PM 33.6042 -114.4289 115° Southeast 489 563 31,500 -3,120 Descending Los Angeles Center
11:15PM 33.5739 -114.3461 114° Southeast 490 564 29,900 -3,000 Descending Albuquerque Center
11:16PM 33.5167 -114.2078 116° Southeast 470 541 27,200 -2,460 Descending Albuquerque Center
11:17PM 33.4564 -114.0483 114° Southeast 443 510 25,000 -1,140 Descending Albuquerque Center
11:18PM 33.4289 -113.9103 103° East 428 493 25,000  Level Albuquerque Center
11:19PM 33.3997 -113.7650 103° East 444 511 25,000  Level Albuquerque Center
11:20PM 33.3697 -113.6153 103° East 459 528 25,000 -1,260 Level Albuquerque Center
11:21PM 33.3406 -113.4719 104° East 450 518 22,500 -1,860 Descending Albuquerque Center
11:22PM 33.3117 -113.3317 104° East 438 504 21,300 -1,740 Descending Albuquerque Center
11:23PM 33.2844 -113.2025 104° East 413 475 19,000 -2,160 Descending Albuquerque Center
11:24PM 33.2742 -113.0739 95° East 394 453 17,000 -1,020 Descending Albuquerque Center
11:25PM 33.2772 -112.9514 88° East 373 429 17,000 -540 Level Albuquerque Center
11:26PM 33.2806 -112.8297 88° East 367 422 16,000 -540 Descending Albuquerque Center
11:27PM 33.2828 -112.7000 89° East 382 440 16,000 -600 Level Albuquerque Center
11:28PM 33.2847 -112.5833 89° East 381 438 14,900 -1,680 Descending Albuquerque Center
11:29PM 33.2900 -112.4550 87° East 388 447 12,600 -1,920 Descending Albuquerque Center
11:30PM 33.2953 -112.3139 87° East 351 404 11,000 -1,380 Descending Albuquerque Center
11:31PM 33.3025 -112.2136 85° East 310 357 9,900 -900 Descending Albuquerque Center
11:32PM 33.3092 -112.1233 85° East 278 320 9,200 -840 Descending Albuquerque Center
11:33PM 33.3236 -112.0453 77° East 249 287 8,300 -1,740 Descending Albuquerque Center
11:34PM 33.3358 -111.9603 80° East 270 311 5,700 -1,440 Descending Albuquerque Center
11:35PM 33.3589 -111.8889 69° East 239 275 5,400 -540 Descending Albuquerque Center
11:36PM 33.4083 -111.8797 North 181 208 4,700 -1,260 Descending Albuquerque Center
11:37PM 33.4308 -111.9103 311° West 157 181 2,900 -1,440 Descending Albuquerque Center
11:38PM 33.4317 -111.9528 271° West 130 150 1,900 -900 Descending Albuquerque Center
11:39PM 33.4306 -111.9978 268° West 122 140 1,200 -720 Descending Albuquerque Center